createdAt,value
2024-01-26T00:00:29.022Z,16.80
2024-01-26T00:02:57.636Z,11.45
2024-01-26T00:05:25.759Z,19.85
2024-01-26T00:07:54.270Z,12.93
2024-01-26T00:10:24.224Z,11.95
2024-01-26T00:12:52.110Z,10.63
2024-01-26T00:15:20.433Z,12.85
2024-01-26T00:17:48.358Z,9.93
2024-01-26T00:20:16.549Z,13.43
2024-01-26T00:22:44.831Z,17.25
2024-01-26T00:25:12.924Z,10.85
2024-01-26T00:27:42.193Z,14.95
2024-01-26T00:30:10.891Z,12.35
2024-01-26T00:32:39.379Z,14.73
2024-01-26T00:35:08.426Z,13.07
2024-01-26T00:37:36.888Z,12.32
2024-01-26T00:40:05.570Z,10.40
2024-01-26T00:42:33.741Z,11.57
2024-01-26T00:45:02.937Z,14.70
2024-01-26T00:47:29.794Z,10.20
2024-01-26T00:49:57.698Z,15.25
2024-01-26T00:52:26.323Z,8.75
2024-01-26T00:54:54.152Z,8.90
2024-01-26T00:57:22.387Z,13.82
2024-01-26T00:59:50.553Z,15.95
2024-01-26T01:02:19.783Z,10.80
2024-01-26T01:04:47.599Z,9.05
2024-01-26T01:07:15.394Z,11.48
2024-01-26T01:09:43.220Z,10.32
2024-01-26T01:12:11.106Z,12.85
2024-01-26T01:14:40.598Z,12.35
2024-01-26T01:17:09.975Z,13.15
2024-01-26T01:19:39.402Z,10.45
2024-01-26T01:22:07.238Z,10.77
2024-01-26T01:24:35.022Z,12.50
2024-01-26T01:27:02.878Z,14.73
2024-01-26T01:29:30.740Z,13.95
2024-01-26T01:31:58.518Z,12.93
2024-01-26T01:34:26.832Z,13.65
2024-01-26T01:36:56.213Z,16.27
2024-01-26T01:39:24.064Z,14.50
2024-01-26T01:41:51.930Z,15.15
2024-01-26T01:44:19.788Z,10.48
2024-01-26T01:46:48.205Z,14.23
2024-01-26T01:49:16.337Z,13.05
2024-01-26T01:51:48.265Z,14.70
2024-01-26T01:54:18.106Z,15.30
2024-01-26T01:56:46.728Z,12.35
2024-01-26T01:59:14.672Z,10.32
2024-01-26T02:01:42.585Z,9.18
2024-01-26T02:04:10.640Z,9.65
2024-01-26T02:06:38.892Z,11.52
2024-01-26T02:09:07.037Z,11.70
2024-01-26T02:11:36.178Z,11.50
2024-01-26T02:14:04.557Z,7.53
2024-01-26T02:16:32.967Z,9.35
2024-01-26T02:19:00.920Z,7.90
2024-01-26T02:21:29.434Z,6.57
2024-01-26T02:23:58.644Z,9.48
2024-01-26T02:26:26.519Z,8.48
2024-01-26T02:28:54.714Z,8.73
2024-01-26T02:31:22.702Z,8.85
2024-01-26T02:33:50.678Z,8.65
2024-01-26T02:36:18.564Z,8.82
2024-01-26T02:38:46.529Z,8.25
2024-01-26T02:41:15.829Z,10.10
2024-01-26T02:43:43.623Z,9.73
2024-01-26T02:46:12.326Z,10.48
2024-01-26T02:48:41.279Z,12.27
2024-01-26T02:51:09.175Z,11.55
2024-01-26T02:53:40.563Z,14.10
2024-01-26T02:56:08.823Z,13.55
2024-01-26T02:58:38.641Z,16.30
2024-01-26T03:01:06.716Z,14.73
2024-01-26T03:03:34.551Z,12.68
2024-01-26T03:06:02.919Z,14.90
2024-01-26T03:08:32.388Z,17.48
2024-01-26T03:11:00.745Z,19.05
2024-01-26T03:13:28.591Z,22.73
2024-01-26T03:15:57.772Z,17.45
2024-01-26T03:18:26.125Z,16.17
2024-01-26T03:20:54.453Z,15.45
2024-01-26T03:23:22.261Z,16.50
2024-01-26T03:25:50.133Z,17.58
2024-01-26T03:28:17.885Z,18.55
2024-01-26T03:30:48.589Z,18.77
2024-01-26T03:33:19.009Z,16.63
2024-01-26T03:35:48.064Z,16.70
2024-01-26T03:38:15.949Z,13.25
2024-01-26T03:40:43.738Z,13.35
2024-01-26T03:43:11.586Z,13.68
2024-01-26T03:45:39.581Z,13.32
2024-01-26T03:48:08.625Z,13.00
2024-01-26T03:50:38.343Z,12.30
2024-01-26T03:53:06.218Z,12.48
2024-01-26T03:55:33.978Z,15.00
2024-01-26T03:58:02.126Z,14.63
2024-01-26T04:00:30.443Z,17.05
2024-01-26T04:02:58.611Z,14.23
2024-01-26T04:05:26.517Z,15.85
2024-01-26T04:07:55.604Z,14.10
2024-01-26T04:10:23.406Z,14.15
2024-01-26T04:12:51.764Z,11.55
2024-01-26T04:15:19.581Z,13.43
2024-01-26T04:17:47.514Z,15.93
2024-01-26T04:20:15.689Z,14.80
2024-01-26T04:22:44.560Z,11.98
2024-01-26T04:25:13.797Z,14.15
2024-01-26T04:27:41.706Z,12.93
2024-01-26T04:30:11.141Z,13.13
2024-01-26T04:32:39.407Z,14.98
2024-01-26T04:35:08.341Z,14.27
2024-01-26T04:37:36.255Z,15.20
2024-01-26T04:40:04.347Z,18.30
2024-01-26T04:42:33.517Z,18.08
2024-01-26T04:45:01.280Z,16.67
2024-01-26T04:47:29.693Z,17.38
2024-01-26T04:49:58.062Z,18.52
2024-01-26T04:52:27.732Z,20.02
2024-01-26T04:54:55.584Z,17.85
2024-01-26T04:57:23.704Z,19.35
2024-01-26T04:59:53.621Z,19.15
2024-01-26T05:02:21.505Z,16.73
2024-01-26T05:04:49.267Z,18.08
2024-01-26T05:07:17.397Z,19.83
2024-01-26T05:09:48.554Z,16.60
2024-01-26T05:12:17.418Z,16.48
2024-01-26T05:14:46.524Z,16.90
2024-01-26T05:17:15.760Z,16.17
2024-01-26T05:19:43.690Z,15.88
2024-01-26T05:22:11.542Z,15.35
2024-01-26T05:24:39.817Z,15.57
2024-01-26T05:27:08.674Z,15.93
2024-01-26T05:29:37.145Z,16.90
2024-01-26T05:32:05.676Z,15.13
2024-01-26T05:34:35.150Z,15.30
2024-01-26T05:37:03.071Z,14.80
2024-01-26T05:39:30.901Z,13.68
2024-01-26T05:41:58.718Z,15.88
2024-01-26T05:44:26.744Z,14.75
2024-01-26T05:46:54.961Z,16.67
2024-01-26T05:49:24.968Z,15.10
2024-01-26T05:51:54.366Z,15.50
2024-01-26T05:54:22.142Z,16.40
2024-01-26T05:56:49.993Z,15.27
2024-01-26T05:59:17.868Z,13.35
2024-01-26T06:01:45.924Z,13.63
2024-01-26T06:04:13.895Z,14.20
2024-01-26T06:06:41.862Z,13.23
2024-01-26T06:09:12.544Z,15.00
2024-01-26T06:11:43.573Z,13.55
2024-01-26T06:14:11.557Z,14.45
2024-01-26T06:16:39.508Z,14.25
2024-01-26T06:19:07.571Z,16.42
2024-01-26T06:21:35.604Z,14.15
2024-01-26T06:24:03.910Z,16.80
2024-01-26T06:26:33.270Z,14.95
2024-01-26T06:29:01.375Z,13.15
2024-01-26T06:31:29.388Z,13.10
2024-01-26T06:33:57.885Z,12.18
2024-01-26T06:36:25.851Z,15.25
2024-01-26T06:38:53.715Z,15.43
2024-01-26T06:41:22.042Z,11.43
2024-01-26T06:43:52.972Z,13.38
2024-01-26T06:46:24.143Z,11.93
2024-01-26T06:48:52.766Z,13.63
2024-01-26T06:51:20.977Z,11.70
2024-01-26T06:53:49.513Z,11.18
2024-01-26T06:56:17.446Z,10.30
2024-01-26T06:58:46.793Z,10.82
2024-01-26T07:01:16.253Z,10.65
2024-01-26T07:03:44.247Z,12.35
2024-01-26T07:06:12.797Z,9.23
2024-01-26T07:08:42.739Z,9.32
2024-01-26T07:11:12.645Z,9.68
2024-01-26T07:13:40.459Z,9.93
2024-01-26T07:16:09.734Z,12.32
2024-01-26T07:18:39.178Z,9.50
2024-01-26T07:21:09.388Z,10.35
2024-01-26T07:23:41.172Z,11.07
2024-01-26T07:26:09.184Z,11.30
2024-01-26T07:28:37.631Z,10.43
2024-01-26T07:31:05.738Z,9.30
2024-01-26T07:33:33.918Z,7.53
2024-01-26T07:36:03.705Z,8.10
2024-01-26T07:38:31.663Z,10.77
2024-01-26T07:40:59.727Z,10.80
2024-01-26T07:43:28.001Z,12.05
2024-01-26T07:45:55.793Z,15.48
2024-01-26T07:48:26.105Z,11.00
2024-01-26T07:50:54.130Z,9.77
2024-01-26T07:53:23.490Z,9.82
2024-01-26T07:55:51.835Z,10.73
2024-01-26T07:58:20.365Z,8.43
2024-01-26T08:00:49.768Z,10.45
2024-01-26T08:03:17.777Z,12.50
2024-01-26T08:05:46.353Z,12.98
2024-01-26T08:08:14.465Z,11.45
2024-01-26T08:10:44.209Z,8.77
2024-01-26T08:13:13.289Z,10.35
2024-01-26T08:15:41.724Z,9.75
2024-01-26T08:18:10.003Z,10.60
2024-01-26T08:20:38.509Z,11.35
2024-01-26T08:23:06.884Z,10.77
2024-01-26T08:25:35.184Z,8.20
2024-01-26T08:28:05.614Z,8.63
2024-01-26T08:30:33.477Z,8.95
2024-01-26T08:33:01.385Z,8.20
2024-01-26T08:35:29.644Z,7.80
2024-01-26T08:37:57.761Z,7.43
2024-01-26T08:40:26.981Z,7.13
2024-01-26T08:42:54.791Z,7.82
2024-01-26T08:45:24.062Z,6.60
2024-01-26T08:47:52.657Z,6.53
2024-01-26T08:50:20.755Z,4.65
2024-01-26T08:52:48.908Z,6.25
2024-01-26T08:55:17.247Z,5.78
2024-01-26T08:57:45.381Z,5.40
2024-01-26T09:00:16.142Z,6.22
2024-01-26T09:02:45.370Z,4.82
2024-01-26T09:05:13.647Z,5.03
2024-01-26T09:07:41.423Z,5.97
2024-01-26T09:10:09.894Z,4.68
2024-01-26T09:12:37.698Z,7.25
2024-01-26T09:15:06.112Z,4.28
2024-01-26T09:17:34.153Z,5.97
2024-01-26T09:20:04.124Z,4.43
2024-01-26T09:22:33.908Z,5.80
2024-01-26T09:25:01.801Z,5.35
2024-01-26T09:27:30.173Z,4.40
2024-01-26T09:29:58.573Z,3.47
2024-01-26T09:32:26.440Z,4.20
2024-01-26T09:34:54.489Z,6.18
2024-01-26T09:37:24.183Z,7.05
2024-01-26T09:39:52.039Z,6.57
2024-01-26T09:42:20.218Z,6.22
2024-01-26T09:44:48.812Z,4.47
2024-01-26T09:47:16.949Z,6.53
2024-01-26T09:49:49.894Z,3.67
2024-01-26T09:52:19.413Z,4.55
2024-01-26T09:54:49.671Z,4.57
2024-01-26T09:57:19.220Z,5.82
2024-01-26T09:59:51.309Z,4.53
2024-01-26T10:02:19.449Z,3.35
2024-01-26T10:04:47.264Z,2.63
2024-01-26T10:07:15.269Z,2.70
2024-01-26T10:09:43.551Z,2.92
2024-01-26T10:12:13.125Z,3.15
2024-01-26T10:14:41.131Z,3.05
2024-01-26T10:17:09.159Z,3.97
2024-01-26T10:19:37.997Z,3.42
2024-01-26T10:22:07.426Z,3.17
2024-01-26T10:24:35.395Z,3.50
2024-01-26T10:27:03.378Z,6.13
2024-01-26T10:29:35.761Z,4.35
2024-01-26T10:32:05.970Z,3.83
2024-01-26T10:34:36.633Z,3.53
2024-01-26T10:37:10.285Z,6.15
2024-01-26T10:39:40.420Z,4.40
2024-01-26T10:42:10.948Z,4.97
2024-01-26T10:44:41.163Z,5.70
2024-01-26T10:47:10.436Z,4.68
2024-01-26T10:49:38.920Z,6.43
2024-01-26T10:52:08.520Z,5.15
2024-01-26T10:54:37.637Z,4.82
2024-01-26T10:57:05.780Z,6.97
2024-01-26T10:59:35.182Z,6.50
2024-01-26T11:02:04.816Z,5.95
2024-01-26T11:04:33.127Z,6.22
2024-01-26T11:07:02.209Z,7.20
2024-01-26T11:09:34.198Z,6.53
2024-01-26T11:12:03.582Z,6.70
2024-01-26T11:14:33.977Z,7.13
2024-01-26T11:17:11.716Z,6.90
2024-01-26T11:19:40.494Z,7.45
2024-01-26T11:22:10.067Z,7.72
2024-01-26T11:24:38.021Z,7.30
2024-01-26T11:27:06.927Z,7.80
2024-01-26T11:29:35.989Z,6.60
2024-01-26T11:32:15.478Z,8.80
2024-01-26T11:34:45.158Z,5.72
2024-01-26T11:37:14.572Z,5.90
2024-01-26T11:39:43.630Z,5.72
2024-01-26T11:42:13.420Z,2.88
2024-01-26T11:44:42.204Z,1.60
2024-01-26T11:47:11.054Z,1.42
2024-01-26T11:49:40.609Z,0.80
2024-01-26T11:52:10.352Z,4.75
2024-01-26T11:54:39.101Z,0.60
2024-01-26T11:57:08.165Z,1.00
2024-01-26T11:59:36.576Z,0.65
2024-01-26T12:02:04.895Z,0.70
2024-01-26T12:04:33.362Z,0.63
2024-01-26T12:07:01.236Z,1.98
2024-01-26T12:09:31.422Z,0.65
2024-01-26T12:11:59.628Z,0.55
2024-01-26T12:14:28.199Z,1.13
2024-01-26T12:16:56.590Z,2.17
2024-01-26T12:19:24.393Z,1.63
2024-01-26T12:21:52.980Z,3.13
2024-01-26T12:24:21.168Z,4.35
2024-01-26T12:26:51.851Z,3.03
2024-01-26T12:29:22.038Z,1.17
2024-01-26T12:31:51.316Z,3.22
2024-01-26T12:34:19.738Z,2.88
2024-01-26T12:36:47.670Z,1.50
2024-01-26T12:39:15.669Z,2.00
2024-01-26T12:41:43.570Z,3.55
2024-01-26T12:44:12.837Z,1.38
2024-01-26T12:46:42.399Z,4.38
2024-01-26T12:49:12.083Z,4.40
2024-01-26T12:51:40.144Z,6.43
2024-01-26T12:54:08.346Z,6.10
2024-01-26T12:56:36.248Z,6.28
2024-01-26T12:59:04.056Z,6.25
2024-01-26T13:01:33.674Z,6.30
2024-01-26T13:04:01.683Z,2.78
2024-01-26T13:06:29.974Z,5.10
2024-01-26T13:08:58.052Z,5.85
2024-01-26T13:11:26.222Z,7.30
2024-01-26T13:13:54.023Z,8.70
2024-01-26T13:16:22.415Z,9.52
2024-01-26T13:18:51.845Z,8.57
2024-01-26T13:21:21.193Z,9.27
2024-01-26T13:23:49.606Z,7.25
2024-01-26T13:26:18.029Z,9.60
2024-01-26T13:28:46.501Z,8.25
2024-01-26T13:31:14.427Z,7.28
2024-01-26T13:33:44.992Z,7.30
2024-01-26T13:36:14.737Z,9.65
2024-01-26T13:38:42.886Z,6.38
2024-01-26T13:41:10.724Z,8.05
2024-01-26T13:43:38.569Z,6.63
2024-01-26T13:46:06.415Z,7.63
2024-01-26T13:48:35.695Z,7.18
2024-01-26T13:51:03.735Z,9.90
2024-01-26T13:53:33.448Z,7.28
2024-01-26T13:56:01.486Z,7.70
2024-01-26T13:58:30.284Z,11.30
2024-01-26T14:00:58.227Z,10.85
2024-01-26T14:03:26.983Z,8.93
2024-01-26T14:05:55.317Z,6.82
2024-01-26T14:08:23.306Z,7.68
2024-01-26T14:10:52.519Z,8.57
2024-01-26T14:13:20.300Z,8.02
2024-01-26T14:15:48.371Z,12.73
2024-01-26T14:18:16.303Z,8.18
2024-01-26T14:20:44.211Z,9.15
2024-01-26T14:23:13.364Z,10.90
2024-01-26T14:25:41.549Z,6.53
2024-01-26T14:28:10.845Z,8.25
2024-01-26T14:30:38.663Z,9.02
2024-01-26T14:33:08.574Z,10.63
2024-01-26T14:35:36.516Z,10.20
2024-01-26T14:38:04.560Z,5.50
2024-01-26T14:40:32.697Z,7.13
2024-01-26T14:43:01.316Z,9.90
2024-01-26T14:45:31.392Z,5.82
2024-01-26T14:47:59.416Z,9.77
2024-01-26T14:50:27.312Z,7.60
2024-01-26T14:52:56.028Z,7.00
2024-01-26T14:55:23.861Z,4.07
2024-01-26T14:57:53.563Z,11.15
2024-01-26T15:00:22.671Z,7.45
2024-01-26T15:02:52.347Z,4.40
2024-01-26T15:05:23.654Z,5.70
2024-01-26T15:07:53.077Z,8.95
2024-01-26T15:10:23.300Z,6.63
2024-01-26T15:12:51.547Z,2.67
2024-01-26T15:15:20.328Z,7.50
2024-01-26T15:17:50.187Z,4.25
2024-01-26T15:20:20.468Z,4.32
2024-01-26T15:22:51.576Z,10.02
2024-01-26T15:25:19.645Z,7.75
2024-01-26T15:27:47.633Z,8.13
2024-01-26T15:30:18.052Z,7.72
2024-01-26T15:32:46.578Z,6.80
2024-01-26T15:35:15.016Z,5.47
2024-01-26T15:37:44.415Z,9.13
2024-01-26T15:40:15.645Z,8.77
2024-01-26T15:42:43.506Z,6.63
2024-01-26T15:45:13.115Z,6.28
2024-01-26T15:47:41.154Z,8.50
2024-01-26T15:50:09.691Z,11.10
2024-01-26T15:52:45.310Z,6.00
2024-01-26T15:55:16.326Z,5.18
2024-01-26T15:57:44.612Z,6.65
2024-01-26T16:00:15.109Z,7.88
2024-01-26T16:02:43.074Z,6.10
2024-01-26T16:05:12.392Z,7.97
2024-01-26T16:07:40.333Z,4.18
2024-01-26T16:10:10.449Z,6.07
2024-01-26T16:12:40.684Z,7.88
2024-01-26T16:15:10.551Z,8.18
2024-01-26T16:17:38.750Z,7.32
2024-01-26T16:20:07.815Z,6.05
2024-01-26T16:22:35.649Z,8.70
2024-01-26T16:25:03.510Z,8.43
2024-01-26T16:27:31.380Z,5.43
2024-01-26T16:30:00.707Z,6.85
2024-01-26T16:32:28.641Z,6.72
2024-01-26T16:34:57.450Z,7.13
2024-01-26T16:37:25.360Z,5.90
2024-01-26T16:39:53.240Z,7.78
2024-01-26T16:42:21.556Z,8.40
2024-01-26T16:44:49.412Z,7.65
2024-01-26T16:47:18.885Z,8.10
2024-01-26T16:49:48.662Z,6.38
2024-01-26T16:52:16.564Z,4.22
2024-01-26T16:54:44.708Z,7.45
2024-01-26T16:57:12.532Z,7.63
2024-01-26T16:59:40.461Z,12.93
2024-01-26T17:02:08.752Z,5.35
2024-01-26T17:04:37.954Z,6.00
2024-01-26T17:07:06.340Z,7.40
2024-01-26T17:09:34.214Z,11.70
2024-01-26T17:12:02.121Z,7.97
2024-01-26T17:14:30.644Z,6.70
2024-01-26T17:16:59.035Z,9.48
2024-01-26T17:19:26.854Z,9.27
2024-01-26T17:21:56.252Z,6.30
2024-01-26T17:24:24.440Z,11.32
2024-01-26T17:26:52.306Z,8.93
2024-01-26T17:29:20.614Z,9.30
2024-01-26T17:31:49.939Z,12.77
2024-01-26T17:34:17.796Z,7.03
2024-01-26T17:36:46.396Z,9.60
2024-01-26T17:39:15.772Z,8.00
2024-01-26T17:41:43.828Z,7.68
2024-01-26T17:44:12.272Z,9.02
2024-01-26T17:46:47.814Z,14.13
2024-01-26T17:49:17.994Z,5.65
2024-01-26T17:51:46.363Z,6.70
2024-01-26T17:54:15.624Z,9.02
2024-01-26T17:56:43.585Z,11.82
2024-01-26T17:59:12.348Z,10.25
2024-01-26T18:01:40.796Z,8.73
2024-01-26T18:04:09.283Z,10.65
2024-01-26T18:06:37.671Z,10.65
2024-01-26T18:09:05.839Z,11.43
2024-01-26T18:11:35.426Z,8.82
2024-01-26T18:14:03.330Z,12.05
2024-01-26T18:16:31.100Z,10.45
2024-01-26T18:18:59.009Z,8.25
2024-01-26T18:21:27.827Z,9.20
2024-01-26T18:23:55.752Z,8.95
2024-01-26T18:26:23.564Z,10.70
2024-01-26T18:28:52.770Z,10.18
2024-01-26T18:31:31.407Z,20.00
2024-01-26T18:33:59.617Z,15.82
2024-01-26T18:36:29.068Z,11.25
2024-01-26T18:38:57.229Z,13.38
2024-01-26T18:41:25.613Z,14.80
2024-01-26T18:43:57.557Z,10.70
2024-01-26T18:46:27.076Z,10.23
2024-01-26T18:48:56.185Z,11.43
2024-01-26T18:51:24.686Z,12.38
2024-01-26T18:53:53.533Z,9.38
2024-01-26T18:56:21.773Z,10.23
2024-01-26T18:58:49.967Z,10.43
2024-01-26T19:01:20.414Z,9.95
2024-01-26T19:03:48.997Z,11.23
2024-01-26T19:06:17.524Z,10.98
2024-01-26T19:08:45.522Z,10.43
2024-01-26T19:11:14.542Z,16.25
2024-01-26T19:13:43.964Z,9.38
2024-01-26T19:16:12.747Z,10.93
2024-01-26T19:18:42.322Z,14.35
2024-01-26T19:21:10.624Z,10.88
2024-01-26T19:23:38.685Z,14.15
2024-01-26T19:26:07.572Z,11.13
2024-01-26T19:28:35.512Z,11.13
2024-01-26T19:31:03.386Z,10.88
2024-01-26T19:33:31.313Z,15.38
2024-01-26T19:36:00.641Z,12.15
2024-01-26T19:38:28.458Z,12.50
2024-01-26T19:40:56.267Z,15.23
2024-01-26T19:43:24.216Z,14.20
2024-01-26T19:45:52.030Z,12.57
2024-01-26T19:48:19.983Z,16.92
2024-01-26T19:50:47.955Z,10.95
2024-01-26T19:53:20.500Z,12.90
2024-01-26T19:55:50.075Z,16.70
2024-01-26T19:58:18.018Z,17.40
2024-01-26T20:00:45.849Z,15.07
2024-01-26T20:03:13.860Z,11.32
2024-01-26T20:05:42.158Z,14.88
2024-01-26T20:08:10.214Z,13.43
2024-01-26T20:10:40.430Z,18.45
2024-01-26T20:13:08.437Z,16.88
2024-01-26T20:15:36.722Z,15.70
2024-01-26T20:18:05.249Z,15.10
2024-01-26T20:20:33.497Z,21.00
2024-01-26T20:23:01.954Z,17.75
2024-01-26T20:25:30.009Z,17.65
2024-01-26T20:27:59.652Z,17.38
2024-01-26T20:30:30.600Z,12.05
2024-01-26T20:32:59.549Z,15.63
2024-01-26T20:35:27.755Z,15.07
2024-01-26T20:37:55.765Z,13.35
2024-01-26T20:40:25.481Z,13.43
2024-01-26T20:43:01.553Z,13.90
2024-01-26T20:45:31.498Z,16.73
2024-01-26T20:48:00.328Z,14.90
2024-01-26T20:50:29.697Z,16.30
2024-01-26T20:52:57.913Z,16.33
2024-01-26T20:55:25.744Z,17.73
2024-01-26T20:57:53.988Z,14.00
2024-01-26T21:00:23.346Z,10.70
2024-01-26T21:02:53.108Z,6.72
2024-01-26T21:05:21.338Z,11.57
2024-01-26T21:07:57.434Z,10.65
2024-01-26T21:10:26.571Z,14.73
2024-01-26T21:12:55.416Z,13.23
2024-01-26T21:15:23.432Z,15.32
2024-01-26T21:17:53.478Z,18.33
2024-01-26T21:20:22.352Z,14.02
2024-01-26T21:22:52.804Z,10.75
2024-01-26T21:25:21.935Z,17.50
2024-01-26T21:27:50.756Z,19.75
2024-01-26T21:30:19.005Z,19.88
2024-01-26T21:32:47.064Z,17.83
2024-01-26T21:35:16.358Z,16.38
2024-01-26T21:37:45.313Z,18.17
2024-01-26T21:40:15.064Z,12.85
2024-01-26T21:42:43.802Z,17.42
2024-01-26T21:45:12.827Z,10.00
2024-01-26T21:47:42.444Z,20.33
2024-01-26T21:50:12.668Z,17.08
2024-01-26T21:52:43.083Z,17.05
2024-01-26T21:55:12.047Z,13.20
2024-01-26T21:57:41.340Z,16.42
2024-01-26T22:00:10.479Z,16.90
2024-01-26T22:02:38.534Z,14.13
2024-01-26T22:05:09.495Z,14.55
2024-01-26T22:07:37.649Z,21.58
2024-01-26T22:10:08.863Z,17.10
2024-01-26T22:12:36.908Z,26.08
2024-01-26T22:15:05.778Z,21.38
2024-01-26T22:17:34.677Z,14.48
2024-01-26T22:20:02.856Z,24.27
2024-01-26T22:22:32.260Z,20.08
2024-01-26T22:25:00.850Z,19.48
2024-01-26T22:27:30.677Z,14.95
2024-01-26T22:29:58.798Z,17.85
2024-01-26T22:32:26.627Z,16.05
2024-01-26T22:34:54.480Z,16.45
2024-01-26T22:37:23.227Z,21.58
2024-01-26T22:39:52.121Z,13.23
2024-01-26T22:42:19.965Z,20.35
2024-01-26T22:44:49.477Z,15.70
2024-01-26T22:47:17.551Z,20.23
2024-01-26T22:49:45.460Z,19.08
2024-01-26T22:52:13.762Z,20.98
2024-01-26T22:54:41.627Z,25.17
2024-01-26T22:57:10.501Z,22.85
2024-01-26T22:59:38.360Z,22.52
2024-01-26T23:02:07.866Z,18.88
2024-01-26T23:04:35.859Z,16.92
2024-01-26T23:07:04.199Z,20.50
2024-01-26T23:09:32.183Z,19.77
2024-01-26T23:11:59.995Z,15.90
2024-01-26T23:14:28.205Z,27.20
2024-01-26T23:16:56.037Z,37.05
2024-01-26T23:19:31.080Z,21.40
2024-01-26T23:22:00.495Z,17.58
2024-01-26T23:24:28.683Z,18.58
2024-01-26T23:26:57.228Z,24.50
2024-01-26T23:29:25.170Z,20.85
2024-01-26T23:31:53.383Z,19.95
2024-01-26T23:34:21.531Z,12.73
2024-01-26T23:36:51.368Z,17.95
2024-01-26T23:39:19.240Z,24.65
2024-01-26T23:41:48.574Z,17.88
2024-01-26T23:44:16.586Z,14.38
2024-01-26T23:46:46.022Z,16.23
2024-01-26T23:49:14.871Z,16.77
2024-01-26T23:51:43.273Z,24.60
2024-01-26T23:54:14.355Z,24.10
2024-01-26T23:56:42.248Z,21.80
2024-01-26T23:59:10.058Z,18.17
